Time;durP1;ratioP1;P1;durP2;ratioP2;P2;SDS_P1;SDS_P2;PMS_P1;PMS_P2;Temp;Humidity;BMP_temperature;BMP_pressure;BME280_temperature;BME280_humidity;BME280_pressure;Samples;Min_cycle;Max_cycle;Signal;HPM_P1;HPM_P2
2023/08/07 00:00:28;;;;;;;;;0.67;0.67;;;;;16.59;82.86;101119.06;5056910;28;46030;-68
2023/08/07 00:02:53;;;;;;;;;2.00;2.00;;;;;16.62;82.84;101124.22;5057118;28;45311;-67
2023/08/07 00:05:19;;;;;;;;;1.00;1.00;;;;;16.58;82.73;101115.59;5057315;28;45312;-67
2023/08/07 00:07:44;;;;;;;;;1.00;1.00;;;;;16.58;83.46;101120.88;5057320;28;45367;-66
2023/08/07 00:10:10;;;;;;;;;1.00;1.00;;;;;16.57;83.10;101113.00;5057445;28;46532;-68
2023/08/07 00:12:35;;;;;;;;;1.00;1.00;;;;;16.60;83.15;101128.75;5057417;28;45489;-66
2023/08/07 00:15:02;;;;;;;;;3.00;3.00;;;;;16.57;83.18;101113.88;5056891;28;49863;-67
2023/08/07 00:17:27;;;;;;;;;1.00;1.00;;;;;16.57;83.25;101116.53;5057638;28;45559;-68
2023/08/07 00:19:53;;;;;;;;;2.00;2.00;;;;;16.56;83.22;101113.94;5057327;28;46018;-67
2023/08/07 00:22:18;;;;;;;;;2.00;2.00;;;;;16.54;83.28;101113.16;5056523;28;57962;-69
2023/08/07 00:24:43;;;;;;;;;2.00;2.00;;;;;16.55;83.14;101122.84;5057066;28;45405;-67
2023/08/07 00:27:12;;;;;;;;;2.00;2.00;;;;;16.43;83.40;101122.59;5057686;28;45221;-66
2023/08/07 00:29:38;;;;;;;;;0.00;0.00;;;;;16.45;83.36;101125.19;5057294;28;46334;-67
2023/08/07 00:32:03;;;;;;;;;0.00;0.00;;;;;16.43;83.55;101129.69;5056155;28;45481;-67
2023/08/07 00:34:29;;;;;;;;;2.00;1.67;;;;;16.43;83.81;101124.38;5056594;28;45454;-66
2023/08/07 00:36:54;;;;;;;;;2.00;2.00;;;;;16.35;83.52;101122.19;5060729;28;45268;-68
2023/08/07 00:39:20;;;;;;;;;2.00;2.00;;;;;16.35;83.58;101124.84;5058224;28;45391;-67
2023/08/07 00:41:45;;;;;;;;;2.00;1.00;;;;;16.16;83.98;101091.34;5039149;28;45520;-67
2023/08/07 00:44:10;;;;;;;;;1.00;1.00;;;;;16.32;83.96;101120.53;5057685;28;45432;-68
2023/08/07 00:46:36;;;;;;;;;0.67;0.67;;;;;16.30;84.00;101117.13;5057380;28;45588;-68
2023/08/07 00:49:03;;;;;;;;;1.67;1.67;;;;;16.28;84.25;101115.50;5056909;28;55698;-68
2023/08/07 00:51:29;;;;;;;;;3.00;3.00;;;;;16.25;84.44;101118.34;5057237;28;45427;-67
2023/08/07 00:53:54;;;;;;;;;2.00;2.00;;;;;16.18;84.63;101105.41;5056834;28;45383;-69
2023/08/07 00:56:20;;;;;;;;;1.33;1.33;;;;;16.21;84.68;101115.84;5056518;28;45581;-68
2023/08/07 00:58:46;;;;;;;;;2.00;2.00;;;;;16.16;84.66;101117.03;5055874;28;46188;-69
2023/08/07 01:01:11;;;;;;;;;0.33;0.33;;;;;16.10;85.32;101106.75;5057442;28;45264;-67
2023/08/07 01:03:37;;;;;;;;;1.00;1.00;;;;;16.11;85.24;101113.78;5040418;28;45423;-67
2023/08/07 01:06:03;;;;;;;;;1.67;1.67;;;;;16.08;84.99;101114.81;5058503;28;45308;-69
2023/08/07 01:08:28;;;;;;;;;1.33;1.33;;;;;16.04;85.84;101110.63;5056556;28;46244;-67
2023/08/07 01:10:54;;;;;;;;;1.00;1.00;;;;;16.00;86.23;101106.41;5056564;28;45892;-69
2023/08/07 01:13:30;;;;;;;;;3.00;3.00;;;;;16.01;86.35;101110.78;5056649;28;45217;-69
2023/08/07 01:16:08;;;;;;;;;2.00;2.00;;;;;15.96;86.63;101120.78;5038607;28;45502;-67
2023/08/07 01:18:34;;;;;;;;;2.00;2.00;;;;;15.94;86.97;101117.38;5037923;28;46350;-67
2023/08/07 01:21:00;;;;;;;;;1.33;1.33;;;;;15.90;87.57;101125.50;5056105;28;45372;-67
2023/08/07 01:23:25;;;;;;;;;1.00;1.00;;;;;15.82;87.56;101117.03;5056092;28;45315;-66
2023/08/07 01:25:51;;;;;;;;;2.00;2.00;;;;;15.80;88.26;101108.28;5055773;28;49135;-66
2023/08/07 01:28:28;;;;;;;;;2.00;2.00;;;;;15.87;88.15;101111.50;5055898;28;45480;-67
2023/08/07 01:30:58;;;;;;;;;2.00;2.00;;;;;15.84;88.09;101112.50;5055688;28;45473;-68
2023/08/07 01:33:34;;;;;;;;;2.00;2.00;;;;;15.64;88.45;101079.13;5055815;28;45297;-68
2023/08/07 01:36:05;;;;;;;;;2.00;2.00;;;;;15.77;88.89;101114.63;5037888;28;45375;-67
2023/08/07 01:38:30;;;;;;;;;1.33;1.33;;;;;15.73;89.50;101109.56;5055649;28;46324;-67
2023/08/07 01:40:57;;;;;;;;;2.00;2.00;;;;;15.69;89.73;101106.25;5055662;28;45320;-68
2023/08/07 01:43:22;;;;;;;;;2.25;2.25;;;;;15.66;90.38;101110.84;5056327;28;45355;-67
2023/08/07 01:45:48;;;;;;;;;2.00;2.00;;;;;15.66;90.12;101110.84;5056002;28;45332;-68
2023/08/07 01:48:13;;;;;;;;;4.00;2.33;;;;;15.62;90.92;101107.50;5055328;28;67397;-68
2023/08/07 01:50:39;;;;;;;;;2.25;2.25;;;;;15.61;90.85;101106.63;5055646;28;45290;-68
2023/08/07 01:53:05;;;;;;;;;1.67;1.67;;;;;15.57;91.39;101104.25;5055702;28;45235;-69
2023/08/07 01:55:31;;;;;;;;;1.67;1.67;;;;;15.56;91.79;101107.84;5055851;28;45205;-68
2023/08/07 01:57:56;;;;;;;;;2.67;2.33;;;;;15.52;92.16;101100.97;5055376;28;45283;-68
2023/08/07 02:00:22;;;;;;;;;2.00;2.00;;;;;15.55;92.64;101116.72;5055424;28;45322;-68
2023/08/07 02:02:47;;;;;;;;;2.00;2.00;;;;;15.52;92.96;101115.06;5055901;28;45528;-67
2023/08/07 02:05:13;;;;;;;;;1.00;1.00;;;;;15.50;93.28;101122.25;5057182;28;45581;-68
2023/08/07 02:07:39;;;;;;;;;1.75;1.75;;;;;15.50;93.25;101111.66;5055344;28;46246;-66
2023/08/07 02:10:05;;;;;;;;;1.50;1.50;;;;;15.56;93.05;101116.63;5055847;28;45340;-67
2023/08/07 02:12:32;;;;;;;;;2.00;2.00;;;;;15.58;92.84;101111.25;5056038;28;45299;-68
2023/08/07 02:14:58;;;;;;;;;1.25;1.25;;;;;15.57;93.27;101113.03;5055877;28;45532;-68
2023/08/07 02:17:24;;;;;;;;;0.00;0.00;;;;;15.58;92.96;101112.09;5055297;28;47104;-68
2023/08/07 02:19:50;;;;;;;;;2.00;2.00;;;;;15.51;93.31;101104.56;5055315;28;45353;-69
2023/08/07 02:22:15;;;;;;;;;3.00;3.00;;;;;15.56;93.52;101113.13;5055813;28;45312;-68
2023/08/07 02:24:40;;;;;;;;;1.33;1.33;;;;;15.55;94.02;101122.03;5055526;28;45593;-67
2023/08/07 02:27:06;;;;;;;;;1.50;1.50;;;;;15.55;93.91;101120.22;5055122;28;48428;-68
2023/08/07 02:29:34;;;;;;;;;2.00;2.00;;;;;15.56;94.29;101119.28;5055183;28;45384;-67
2023/08/07 02:31:59;;;;;;;;;2.75;2.75;;;;;15.56;94.00;101108.69;5037303;28;45277;-67
2023/08/07 02:34:25;;;;;;;;;2.00;2.00;;;;;15.51;94.45;101108.06;5055365;28;45323;-68
2023/08/07 02:36:50;;;;;;;;;1.25;1.25;;;;;15.55;94.59;101111.41;5055229;28;45304;-68
2023/08/07 02:39:15;;;;;;;;;2.00;2.00;;;;;15.51;94.86;101108.06;5055385;28;45402;-67
2023/08/07 02:41:40;;;;;;;;;2.00;2.00;;;;;15.55;94.94;101108.78;5054259;28;62213;-68
2023/08/07 02:44:06;;;;;;;;;2.50;2.50;;;;;15.51;95.43;101104.56;5055161;28;45602;-66
2023/08/07 02:46:31;;;;;;;;;2.33;2.33;;;;;15.51;95.62;101117.81;5054555;28;61767;-67
2023/08/07 02:48:56;;;;;;;;;4.75;3.00;;;;;15.49;95.74;101109.94;5055025;28;45300;-66
2023/08/07 02:51:22;;;;;;;;;3.00;3.00;;;;;15.48;95.95;101110.88;5036753;28;49339;-67
2023/08/07 02:53:47;;;;;;;;;2.00;2.00;;;;;15.45;96.39;101111.91;5037634;28;45405;-67
2023/08/07 02:56:12;;;;;;;;;3.33;2.67;;;;;15.44;96.57;101107.53;5054845;28;46325;-66
2023/08/07 02:58:38;;;;;;;;;1.67;1.67;;;;;15.45;96.77;101111.91;5055035;28;45241;-66
2023/08/07 03:01:05;;;;;;;;;3.33;2.00;;;;;15.44;96.79;101109.31;5054767;28;45261;-67
2023/08/07 03:03:31;;;;;;;;;5.00;2.33;;;;;15.40;97.26;101118.38;5055150;28;45375;-68
2023/08/07 03:05:56;;;;;;;;;3.00;3.00;;;;;15.39;97.49;101112.22;5057153;28;45890;-68
2023/08/07 03:08:21;;;;;;;;;3.00;3.00;;;;;15.31;98.26;101112.63;5055565;28;52532;-67
2023/08/07 03:10:55;;;;;;;;;1.67;1.67;;;;;15.35;98.71;101110.66;5037255;28;45314;-67
2023/08/07 03:13:21;;;;;;;;;3.50;2.00;;;;;15.34;98.22;101108.94;5055522;28;45233;-66
2023/08/07 03:15:49;;;;;;;;;5.25;2.25;;;;;15.35;98.68;101105.34;5054843;28;45201;-68
2023/08/07 03:18:14;;;;;;;;;2.00;2.00;;;;;15.28;99.28;101119.84;5055712;28;45388;-67
2023/08/07 03:20:39;;;;;;;;;4.50;4.50;;;;;15.38;99.11;101114.94;5040324;28;45444;-68
2023/08/07 03:23:04;;;;;;;;;3.00;3.00;;;;;15.29;99.61;101114.47;5060128;28;55903;-68
2023/08/07 03:25:30;;;;;;;;;3.00;3.00;;;;;15.26;100.00;101112.00;5061948;28;65495;-68
2023/08/07 03:27:55;;;;;;;;;3.25;3.25;;;;;15.28;100.00;101119.84;5063117;28;54397;-67
2023/08/07 03:30:20;;;;;;;;;3.00;3.00;;;;;15.28;100.00;101115.44;5059037;28;45338;-65
2023/08/07 03:32:46;;;;;;;;;1.25;1.25;;;;;15.22;100.00;101113.09;5058452;28;45498;-67
2023/08/07 03:35:11;;;;;;;;;2.50;2.50;;;;;15.27;100.00;101121.66;5039985;28;48189;-66
2023/08/07 03:37:36;;;;;;;;;4.00;3.00;;;;;15.29;100.00;101124.22;5058123;28;45343;-66
2023/08/07 03:40:02;;;;;;;;;3.00;3.00;;;;;15.30;100.00;101118.84;5058409;28;45412;-66
2023/08/07 03:42:28;;;;;;;;;6.50;3.75;;;;;15.24;100.00;101123.59;5058474;28;45374;-67
2023/08/07 03:44:53;;;;;;;;;2.75;2.50;;;;;15.21;100.00;101124.63;5039406;28;64957;-67
2023/08/07 03:47:18;;;;;;;;;3.00;3.00;;;;;15.20;100.00;101133.50;5040148;28;45314;-67
2023/08/07 03:49:44;;;;;;;;;3.00;2.50;;;;;15.19;100.00;101124.69;5057903;28;45788;-68
2023/08/07 03:52:10;;;;;;;;;2.50;2.50;;;;;15.22;100.00;101118.38;5058065;28;45572;-67
2023/08/07 03:54:35;;;;;;;;;5.00;3.50;;;;;15.28;100.00;101127.81;5039519;28;45373;-69
2023/08/07 03:57:00;;;;;;;;;2.00;2.00;;;;;15.30;100.00;101124.16;5040105;28;45363;-65
2023/08/07 03:59:26;;;;;;;;;6.25;3.75;;;;;15.31;100.00;101128.50;5058327;28;45257;-67
2023/08/07 04:01:51;;;;;;;;;3.00;3.00;;;;;15.32;100.00;101118.75;5058374;28;45224;-68
2023/08/07 04:04:16;;;;;;;;;5.50;3.50;;;;;15.30;100.00;101121.50;5057358;28;46771;-67
2023/08/07 04:06:43;;;;;;;;;2.50;2.00;;;;;15.33;100.00;101124.00;5057021;28;65361;-65
2023/08/07 04:09:10;;;;;;;;;6.25;3.75;;;;;15.34;100.00;101125.72;5057619;28;45330;-68
2023/08/07 04:11:35;;;;;;;;;3.75;3.00;;;;;15.28;100.00;101123.38;5057585;28;45573;-67
2023/08/07 04:14:00;;;;;;;;;3.25;3.25;;;;;15.35;100.00;101126.53;5039000;28;46471;-66
2023/08/07 04:16:26;;;;;;;;;2.50;2.50;;;;;15.38;100.00;101130.84;5055994;28;45508;-66
2023/08/07 04:18:51;;;;;;;;;4.25;2.75;;;;;15.36;100.00;101128.25;5057675;28;45328;-67
2023/08/07 04:21:16;;;;;;;;;4.00;4.00;;;;;15.36;100.00;101124.78;5057625;28;45361;-68
2023/08/07 04:23:42;;;;;;;;;4.25;3.00;;;;;15.42;100.00;101135.06;5056936;28;45391;-65
2023/08/07 04:26:07;;;;;;;;;3.75;3.75;;;;;15.49;100.00;101131.16;5039029;28;45275;-66
2023/08/07 04:28:32;;;;;;;;;2.50;2.50;;;;;15.52;100.00;101138.94;5056828;28;49016;-68
2023/08/07 04:30:58;;;;;;;;;4.50;4.50;;;;;15.55;100.00;101132.63;5057521;28;45625;-67
2023/08/07 04:33:23;;;;;;;;;3.75;3.75;;;;;15.52;100.00;101138.94;5057213;28;46303;-69
2023/08/07 04:35:48;;;;;;;;;2.00;2.00;;;;;15.56;100.00;101140.50;5057183;28;45214;-66
2023/08/07 04:38:14;;;;;;;;;4.50;3.25;;;;;15.58;100.00;101138.63;5056872;28;45397;-67
2023/08/07 04:40:44;;;;;;;;;6.25;4.75;;;;;15.59;100.00;101135.03;5057039;28;45442;-68
2023/08/07 04:43:10;;;;;;;;;3.50;3.50;;;;;15.58;100.00;101127.16;5056810;28;46351;-67
2023/08/07 04:45:37;;;;;;;;;8.00;5.25;;;;;15.56;100.00;101135.19;5055582;28;45366;-69
2023/08/07 04:48:02;;;;;;;;;5.00;4.00;;;;;15.57;100.00;101144.00;5059102;28;45340;-68
2023/08/07 04:50:29;;;;;;;;;4.75;3.50;;;;;15.59;100.00;101144.78;5056824;28;45291;-68
2023/08/07 04:52:54;;;;;;;;;2.50;2.25;;;;;15.60;100.00;101138.56;5057289;28;46122;-68
2023/08/07 04:55:19;;;;;;;;;5.50;4.50;;;;;15.62;100.00;101134.03;5038549;28;57262;-66
2023/08/07 04:57:46;;;;;;;;;4.50;3.25;;;;;15.59;100.00;101140.34;5056886;28;45291;-66
2023/08/07 05:00:12;;;;;;;;;4.00;4.00;;;;;15.68;100.00;101154.03;5056952;28;45428;-68
2023/08/07 05:02:37;;;;;;;;;4.75;3.75;;;;;15.74;100.00;101140.47;5038290;28;48645;-68
2023/08/07 05:05:02;;;;;;;;;4.00;4.00;;;;;15.81;100.00;101138.34;5055475;28;64998;-68
2023/08/07 05:07:28;;;;;;;;;2.00;2.00;;;;;15.94;100.00;101143.91;5057261;28;45391;-68
2023/08/07 05:09:53;;;;;;;;;7.50;4.25;;;;;15.51;100.00;101131.09;5056437;28;51601;-69
2023/08/07 05:12:18;;;;;;;;;5.50;4.25;;;;;15.58;100.00;101149.22;5056497;28;45282;-68
2023/08/07 05:14:44;;;;;;;;;4.00;4.00;;;;;15.56;100.00;101147.59;5056746;28;45248;-69
2023/08/07 05:17:09;;;;;;;;;6.00;6.00;;;;;15.58;100.00;101154.53;5057896;28;46502;-68
2023/08/07 05:19:34;;;;;;;;;7.00;5.50;;;;;15.58;100.00;101157.19;5057890;28;45303;-67
2023/08/07 05:21:59;;;;;;;;;7.75;6.00;;;;;15.62;100.00;101157.88;5056155;28;46334;-67
2023/08/07 05:24:25;;;;;;;;;7.25;6.25;;;;;15.69;100.00;101167.25;5056157;28;48767;-68
2023/08/07 05:26:50;;;;;;;;;8.25;6.25;;;;;15.73;100.00;101159.97;5056167;28;45369;-69
2023/08/07 05:29:15;;;;;;;;;9.00;7.00;;;;;15.86;100.00;101161.03;5056157;28;45261;-70
2023/08/07 05:31:41;;;;;;;;;6.25;6.00;;;;;16.04;100.00;101161.03;5054776;28;70519;-68
2023/08/07 05:34:06;;;;;;;;;6.25;5.75;;;;;15.94;100.00;101160.66;5055222;28;66835;-67
2023/08/07 05:36:32;;;;;;;;;9.50;8.25;;;;;15.88;100.00;101161.81;5054043;28;45374;-68
2023/08/07 05:38:58;;;;;;;;;7.00;7.00;;;;;15.95;100.00;101167.69;5053799;28;45450;-66
2023/08/07 05:41:23;;;;;;;;;12.25;9.00;;;;;16.06;100.00;101159.16;5072876;28;45354;-70
2023/08/07 05:43:48;;;;;;;;;10.00;7.00;;;;;16.20;100.00;101161.03;5072821;28;63067;-69
2023/08/07 05:46:14;;;;;;;;;6.25;6.25;;;;;16.19;100.00;101165.50;5070323;28;45297;-68
2023/08/07 05:48:39;;;;;;;;;8.75;8.75;;;;;16.17;100.00;101170.03;5073539;28;60677;-69
2023/08/07 05:51:04;;;;;;;;;8.75;8.75;;;;;16.21;100.00;101168.06;5072926;27;69485;-67
2023/08/07 05:53:29;;;;;;;;;9.75;8.00;;;;;16.17;100.00;101171.81;5075733;27;45475;-67
2023/08/07 05:55:55;;;;;;;;;8.75;8.75;;;;;16.21;100.00;101178.69;5080747;28;45154;-68
2023/08/07 05:58:21;;;;;;;;;15.50;13.50;;;;;16.26;100.00;101179.28;5058774;28;45494;-64
2023/08/07 06:00:46;;;;;;;;;12.75;7.75;;;;;16.32;100.00;101180.75;5073363;28;46302;-70
2023/08/07 06:03:11;;;;;;;;;14.25;14.00;;;;;16.40;100.00;101183.84;5076083;28;45375;-67
2023/08/07 06:05:37;;;;;;;;;13.50;11.00;;;;;16.47;100.00;101173.75;5054054;28;45559;-66
2023/08/07 06:08:02;;;;;;;;;12.25;9.00;;;;;16.56;100.00;101159.09;5075594;28;52518;-65
2023/08/07 06:10:27;;;;;;;;;11.25;9.50;;;;;16.69;100.00;101176.03;5071162;27;45371;-68
2023/08/07 06:12:53;;;;;;;;;11.75;9.75;;;;;16.78;100.00;101177.34;5062878;28;54662;-66
2023/08/07 06:15:19;;;;;;;;;11.25;9.75;;;;;16.78;100.00;101172.84;5055405;28;45425;-68
2023/08/07 06:17:44;;;;;;;;;9.25;9.25;;;;;16.80;100.00;101176.28;5069868;28;45633;-65
2023/08/07 06:20:11;;;;;;;;;10.50;10.50;;;;;16.90;100.00;101173.09;5046939;28;47113;-75
2023/08/07 06:22:36;;;;;;;;;9.00;8.00;;;;;16.92;99.88;101179.19;5054976;28;45425;-73
2023/08/07 06:25:02;;;;;;;;;14.50;11.50;;;;;16.94;99.63;101179.94;5062902;28;45695;-70
2023/08/07 06:27:27;;;;;;;;;9.25;9.25;;;;;16.93;99.31;101180.88;5061397;28;45525;-75
2023/08/07 06:29:52;;;;;;;;;10.50;9.50;;;;;17.02;99.38;101179.56;5069213;28;45409;-74
2023/08/07 06:32:18;;;;;;;;;11.00;10.00;;;;;17.07;98.87;101188.97;5057511;28;47037;-72
2023/08/07 06:34:44;;;;;;;;;12.25;9.00;;;;;17.11;98.38;101199.44;5052694;28;45267;-76
2023/08/07 06:37:09;;;;;;;;;13.25;11.25;;;;;17.17;98.89;101188.44;5071059;28;45492;-66
2023/08/07 06:39:34;;;;;;;;;12.75;12.75;;;;;17.29;97.91;101192.16;5054741;28;45981;-63
2023/08/07 06:42:00;;;;;;;;;12.50;11.00;;;;;17.38;96.95;101191.63;5053805;28;45330;-65
2023/08/07 06:44:26;;;;;;;;;10.25;10.25;;;;;17.42;96.34;101193.16;5053510;28;45343;-63
2023/08/07 06:46:52;;;;;;;;;11.00;11.00;;;;;17.47;95.45;101199.06;5055044;28;45249;-64
2023/08/07 06:49:17;;;;;;;;;16.50;12.50;;;;;17.55;95.35;101203.94;5052217;28;46205;-65
2023/08/07 06:51:42;;;;;;;;;10.25;10.25;;;;;17.66;94.87;101198.81;5067276;28;45342;-66
2023/08/07 06:54:08;;;;;;;;;10.00;10.00;;;;;17.81;93.92;101205.03;5077100;27;45414;-65
2023/08/07 06:56:33;;;;;;;;;11.25;11.25;;;;;17.91;93.04;101215.09;5064209;28;45421;-64
2023/08/07 06:58:58;;;;;;;;;10.25;10.25;;;;;18.05;92.11;101216.97;5062891;28;45490;-66
2023/08/07 07:01:24;;;;;;;;;10.00;9.75;;;;;18.06;91.51;101213.34;5073840;28;45376;-69
2023/08/07 07:03:52;;;;;;;;;10.50;10.00;;;;;18.14;90.89;101215.53;5077763;27;63186;-69
2023/08/07 07:06:18;;;;;;;;;14.50;13.00;;;;;18.25;90.56;101213.03;5075359;28;45603;-60
2023/08/07 07:08:43;;;;;;;;;11.50;9.75;;;;;18.44;89.76;101233.19;5056799;28;46279;-66
2023/08/07 07:11:08;;;;;;;;;12.50;12.50;;;;;18.49;88.63;101228.41;5057208;28;62215;-66
2023/08/07 07:13:34;;;;;;;;;9.50;9.50;;;;;18.50;88.21;101231.00;5061958;28;45614;-66
2023/08/07 07:15:59;;;;;;;;;14.50;11.50;;;;;18.43;87.98;101231.47;5056192;28;50210;-65
2023/08/07 07:18:24;;;;;;;;;12.00;10.25;;;;;18.34;88.07;101231.09;5057863;28;45432;-68
2023/08/07 07:21:00;;;;;;;;;8.25;8.25;;;;;18.33;87.83;101233.88;5057605;28;45380;-66
2023/08/07 07:23:25;;;;;;;;;12.00;10.50;;;;;18.33;88.03;101231.22;5056334;28;45336;-67
2023/08/07 07:25:51;;;;;;;;;11.50;11.50;;;;;18.42;87.66;101230.63;5056208;28;45452;-69
2023/08/07 07:28:16;;;;;;;;;11.50;10.25;;;;;18.59;87.17;101232.25;5039089;28;47127;-68
2023/08/07 07:30:41;;;;;;;;;9.00;9.00;;;;;18.73;86.07;101233.16;5057403;28;45293;-67
2023/08/07 07:33:07;;;;;;;;;9.00;6.25;;;;;18.81;85.70;101230.84;5057908;28;45265;-66
2023/08/07 07:35:33;;;;;;;;;11.50;10.00;;;;;18.94;84.88;101238.88;5057263;28;52134;-64
2023/08/07 07:37:58;;;;;;;;;9.50;9.50;;;;;18.92;84.12;101241.66;5057295;28;46014;-66
2023/08/07 07:40:23;;;;;;;;;10.75;8.50;;;;;19.07;83.75;101239.81;5038960;28;45293;-67
2023/08/07 07:42:48;;;;;;;;;9.75;9.75;;;;;19.31;82.72;101243.66;5056858;28;54445;-67
2023/08/07 07:45:14;;;;;;;;;8.75;8.75;;;;;19.48;81.93;101239.84;5057206;28;50978;-66
2023/08/07 07:47:39;;;;;;;;;8.00;8.00;;;;;19.63;81.10;101236.13;5056562;28;67844;-67
2023/08/07 07:50:08;;;;;;;;;9.00;9.00;;;;;19.63;80.10;101243.31;5057055;28;54848;-66
2023/08/07 07:52:34;;;;;;;;;9.00;9.00;;;;;19.82;79.65;101250.88;5056844;28;45397;-66
2023/08/07 07:55:00;;;;;;;;;10.25;8.25;;;;;19.96;79.20;101245.47;5057368;28;45494;-66
2023/08/07 07:57:26;;;;;;;;;12.25;10.75;;;;;19.98;78.12;101238.22;5038663;28;46531;-68
2023/08/07 07:59:51;;;;;;;;;8.75;8.75;;;;;20.01;77.47;101237.16;5057174;28;45451;-68
2023/08/07 08:02:17;;;;;;;;;9.25;9.25;;;;;19.93;77.22;101243.03;5056826;28;55945;-66
2023/08/07 08:04:42;;;;;;;;;8.00;8.00;;;;;19.78;77.01;101246.72;5056937;28;45407;-65
2023/08/07 08:07:07;;;;;;;;;10.00;8.75;;;;;19.79;76.92;101249.31;5056772;28;59397;-66
2023/08/07 08:09:34;;;;;;;;;9.00;8.00;;;;;19.81;77.38;101250.06;5056416;28;56934;-68
2023/08/07 08:11:59;;;;;;;;;9.25;8.25;;;;;19.95;75.89;101259.78;5057049;28;45385;-66
2023/08/07 08:14:24;;;;;;;;;7.67;6.00;;;;;19.97;75.96;101257.88;5057030;28;45384;-66
2023/08/07 08:16:50;;;;;;;;;8.50;6.25;;;;;20.10;74.86;101273.03;5057029;28;45374;-66
2023/08/07 08:19:16;;;;;;;;;7.00;7.00;;;;;20.09;74.29;101274.88;5056834;28;45482;-65
2023/08/07 08:21:42;;;;;;;;;9.75;8.75;;;;;20.03;74.71;101279.75;5056718;28;45327;-68
2023/08/07 08:24:07;;;;;;;;;13.50;8.25;;;;;19.99;74.98;101266.63;5039063;28;45283;-67
2023/08/07 08:26:32;;;;;;;;;7.33;7.33;;;;;20.06;74.53;101269.75;5056753;28;46443;-67
2023/08/07 08:28:58;;;;;;;;;6.00;6.00;;;;;20.10;73.31;101268.56;5056586;28;56433;-66
2023/08/07 08:31:24;;;;;;;;;6.75;6.75;;;;;20.06;73.26;101283.09;5056838;28;45275;-67
2023/08/07 08:33:49;;;;;;;;;6.67;6.67;;;;;20.01;73.54;101271.88;5056661;28;45174;-67
2023/08/07 08:36:14;;;;;;;;;7.00;7.00;;;;;19.97;73.85;101268.53;5056488;28;45300;-66
2023/08/07 08:38:40;;;;;;;;;8.00;8.00;;;;;20.00;73.59;101262.16;5038476;28;45704;-65
2023/08/07 08:41:08;;;;;;;;;7.25;7.25;;;;;20.13;73.37;101256.78;5055457;28;45223;-65
2023/08/07 08:43:36;;;;;;;;;6.00;6.00;;;;;20.10;71.98;101268.56;5056928;28;45663;-67
2023/08/07 08:46:03;;;;;;;;;4.00;4.00;;;;;19.93;70.89;101267.06;5056838;28;45370;-67
2023/08/07 08:48:34;;;;;;;;;5.33;4.00;;;;;19.90;70.74;101269.09;5057675;28;45143;-67
2023/08/07 08:50:59;;;;;;;;;5.00;5.00;;;;;20.07;71.19;101265.22;5057061;28;45715;-66
2023/08/07 08:53:25;;;;;;;;;6.00;6.00;;;;;20.05;70.55;101262.69;5056576;28;45589;-65
2023/08/07 08:55:52;;;;;;;;;6.00;6.00;;;;;20.16;71.04;101263.75;5059287;28;45376;-66
2023/08/07 08:58:19;;;;;;;;;4.75;4.75;;;;;20.28;70.25;101266.44;5059531;28;45200;-66
2023/08/07 09:00:45;;;;;;;;;6.25;6.25;;;;;20.20;69.79;101262.56;5056590;28;45398;-67
2023/08/07 09:03:11;;;;;;;;;7.00;7.00;;;;;20.22;69.59;101261.53;5056793;28;45181;-67
2023/08/07 09:05:37;;;;;;;;;5.25;5.25;;;;;20.31;69.66;101253.81;5056004;28;46099;-66
2023/08/07 09:08:03;;;;;;;;;2.00;2.00;;;;;20.55;68.11;101256.53;5056238;28;45547;-65
2023/08/07 09:10:30;;;;;;;;;5.75;5.75;;;;;20.55;68.38;101261.88;5056231;28;45383;-67
2023/08/07 09:13:04;;;;;;;;;5.00;5.00;;;;;20.56;68.23;101259.13;5056362;28;45476;-67
2023/08/07 09:15:31;;;;;;;;;5.00;5.00;;;;;20.55;68.31;101259.19;5036526;28;47767;-66
2023/08/07 09:17:58;;;;;;;;;5.00;5.00;;;;;20.77;67.73;101274.56;5055838;28;45373;-65
2023/08/07 09:20:24;;;;;;;;;5.00;5.00;;;;;20.83;67.90;101265.28;5056272;28;45254;-67
2023/08/07 09:22:50;;;;;;;;;4.00;4.00;;;;;20.87;66.75;101266.75;5056291;28;45211;-69
2023/08/07 09:25:27;;;;;;;;;3.67;3.67;;;;;20.80;66.72;101277.03;5055693;28;46096;-67
2023/08/07 09:27:54;;;;;;;;;4.33;4.33;;;;;20.77;66.39;101279.91;5055490;28;45348;-68
2023/08/07 09:30:20;;;;;;;;;7.50;6.00;;;;;20.80;66.91;101274.38;5055648;28;45300;-67
2023/08/07 09:32:47;;;;;;;;;5.50;5.50;;;;;20.75;66.00;101271.13;5055818;28;45562;-67
2023/08/07 09:35:13;;;;;;;;;4.67;4.67;;;;;20.81;64.96;101267.22;5037636;28;47395;-66
2023/08/07 09:37:38;;;;;;;;;6.25;6.25;;;;;20.92;64.19;101269.97;5055571;28;45244;-66
2023/08/07 09:40:04;;;;;;;;;5.00;5.00;;;;;21.12;63.87;101270.31;5055418;28;45410;-68
2023/08/07 09:42:33;;;;;;;;;4.00;4.00;;;;;21.21;63.37;101280.31;5037352;28;45644;-66
2023/08/07 09:45:00;;;;;;;;;3.33;3.33;;;;;21.23;62.72;101282.91;5037119;28;46840;-67
2023/08/07 09:47:25;;;;;;;;;5.33;5.33;;;;;21.36;62.10;101278.31;5055314;28;45348;-67
2023/08/07 09:49:54;;;;;;;;;6.50;6.50;;;;;21.63;62.18;101269.19;5055308;28;45386;-66
2023/08/07 09:52:19;;;;;;;;;5.25;5.25;;;;;21.79;61.72;101265.34;5054311;28;45422;-67
2023/08/07 09:54:45;;;;;;;;;4.00;4.00;;;;;21.93;60.79;101283.88;5055131;28;53909;-69
2023/08/07 09:57:10;;;;;;;;;3.00;3.00;;;;;21.89;60.20;101283.28;5055520;28;45241;-67
2023/08/07 09:59:35;;;;;;;;;4.00;4.00;;;;;21.91;59.85;101277.78;5055899;28;45192;-66
2023/08/07 10:02:02;;;;;;;;;2.67;2.67;;;;;21.93;59.26;101275.00;5055804;28;45491;-66
2023/08/07 10:04:28;;;;;;;;;4.00;4.00;;;;;21.94;59.13;101266.84;5055246;28;46209;-66
2023/08/07 10:06:53;;;;;;;;;3.00;3.00;;;;;22.00;59.56;101270.88;5056133;28;45475;-65
2023/08/07 10:09:20;;;;;;;;;3.00;3.00;;;;;21.91;58.91;101269.75;5056521;28;45487;-68
2023/08/07 10:11:46;;;;;;;;;3.33;3.33;;;;;21.88;58.27;101272.66;5056877;28;45329;-68
2023/08/07 10:14:15;;;;;;;;;6.25;6.25;;;;;21.98;58.20;101262.09;5057538;28;45374;-68
2023/08/07 10:16:41;;;;;;;;;5.00;5.00;;;;;22.11;58.14;101261.97;5057565;28;44748;-66
2023/08/07 10:19:07;;;;;;;;;3.67;3.67;;;;;22.09;57.64;101247.84;5057707;28;45233;-68
2023/08/07 10:21:35;;;;;;;;;5.00;5.00;;;;;22.18;58.01;101253.34;5057317;28;45508;-68
2023/08/07 10:24:04;;;;;;;;;6.00;6.00;;;;;22.35;57.36;101253.00;5057467;28;46078;-66
2023/08/07 10:26:32;;;;;;;;;5.00;5.00;;;;;22.48;57.11;101264.47;5056284;28;45449;-65
2023/08/07 10:29:00;;;;;;;;;6.00;6.00;;;;;22.56;56.61;101250.44;5055959;28;45456;-67
2023/08/07 10:31:27;;;;;;;;;5.50;5.50;;;;;22.62;56.57;101247.25;5055209;28;45383;-65
2023/08/07 10:33:52;;;;;;;;;3.00;3.00;;;;;22.63;55.95;101238.22;5055381;28;45667;-66
2023/08/07 10:36:18;;;;;;;;;2.00;2.00;;;;;22.73;55.65;101246.38;5054552;28;45362;-65
2023/08/07 10:38:44;;;;;;;;;4.33;4.33;;;;;22.69;54.94;101242.25;5036803;28;45585;-67
2023/08/07 10:41:13;;;;;;;;;5.00;5.00;;;;;22.78;55.21;101249.56;5054763;28;45621;-66
2023/08/07 10:43:41;;;;;;;;;6.67;6.67;;;;;22.84;54.16;101254.41;5054752;28;46289;-65
2023/08/07 10:46:11;;;;;;;;;5.00;5.00;;;;;22.97;54.00;101243.53;5054159;28;45372;-66
2023/08/07 10:48:46;;;;;;;;;6.00;6.00;;;;;23.10;53.33;101247.88;5054648;28;45347;-67
2023/08/07 10:51:17;;;;;;;;;4.00;4.00;;;;;23.09;53.38;101240.81;5036479;28;45298;-67
2023/08/07 10:53:46;;;;;;;;;4.00;4.00;;;;;23.00;53.80;101251.34;5054193;28;46299;-65
2023/08/07 10:56:16;;;;;;;;;4.00;4.00;;;;;23.03;53.67;101242.16;5036148;28;45320;-66
2023/08/07 10:58:41;;;;;;;;;4.33;4.33;;;;;23.25;53.81;101233.22;5036033;28;45279;-66
2023/08/07 11:01:19;;;;;;;;;3.00;3.00;;;;;23.55;52.16;101241.50;5035761;28;45304;-67
2023/08/07 11:03:49;;;;;;;;;1.67;1.67;;;;;23.71;51.09;101241.88;5054375;28;46054;-67
2023/08/07 11:06:16;;;;;;;;;3.33;3.33;;;;;23.75;51.64;101245.13;5054790;28;45354;-65
2023/08/07 11:08:41;;;;;;;;;2.33;2.33;;;;;23.67;51.41;101237.75;5035888;28;45383;-68
2023/08/07 11:11:07;;;;;;;;;3.33;3.33;;;;;23.68;51.32;101239.47;5054711;28;45558;-66
2023/08/07 11:13:35;;;;;;;;;3.33;3.33;;;;;23.72;50.46;101237.34;5054534;28;46164;-67
2023/08/07 11:16:05;;;;;;;;;3.00;3.00;;;;;23.88;50.82;101237.75;5054509;28;45405;-67